sensor_id;sensor_type;location;lat;lon;timestamp;P1;durP1;ratioP1;P2;durP2;ratioP2
73951;SDS011;62304;47.662;18.324;2023-09-19T00:02:03;13.52;;;6.22;;
73951;SDS011;62304;47.662;18.324;2023-09-19T00:05:15;14.15;;;5.82;;
73951;SDS011;62304;47.662;18.324;2023-09-19T00:08:18;15.48;;;5.75;;
73951;SDS011;62304;47.662;18.324;2023-09-19T00:11:25;14.30;;;5.93;;
73951;SDS011;62304;47.662;18.324;2023-09-19T00:14:30;16.67;;;5.60;;
73951;SDS011;62304;47.662;18.324;2023-09-19T00:17:40;15.57;;;6.18;;
73951;SDS011;62304;47.662;18.324;2023-09-19T00:20:43;12.55;;;5.70;;
73951;SDS011;62304;47.662;18.324;2023-09-19T00:23:50;13.18;;;5.80;;
73951;SDS011;62304;47.662;18.324;2023-09-19T00:26:54;12.23;;;5.97;;
73951;SDS011;62304;47.662;18.324;2023-09-19T00:29:59;13.93;;;5.30;;
73951;SDS011;62304;47.662;18.324;2023-09-19T00:33:02;13.10;;;6.05;;
73951;SDS011;62304;47.662;18.324;2023-09-19T00:36:10;12.73;;;5.85;;
73951;SDS011;62304;47.662;18.324;2023-09-19T00:39:13;13.52;;;5.93;;
73951;SDS011;62304;47.662;18.324;2023-09-19T00:42:20;15.68;;;5.85;;
73951;SDS011;62304;47.662;18.324;2023-09-19T00:45:24;16.73;;;6.17;;
73951;SDS011;62304;47.662;18.324;2023-09-19T00:48:30;16.02;;;6.55;;
73951;SDS011;62304;47.662;18.324;2023-09-19T00:51:34;14.27;;;6.20;;
73951;SDS011;62304;47.662;18.324;2023-09-19T00:54:38;12.18;;;5.75;;
73951;SDS011;62304;47.662;18.324;2023-09-19T00:57:42;20.08;;;5.85;;
73951;SDS011;62304;47.662;18.324;2023-09-19T01:04:18;13.35;;;6.05;;
73951;SDS011;62304;47.662;18.324;2023-09-19T01:07:21;13.15;;;6.22;;
73951;SDS011;62304;47.662;18.324;2023-09-19T01:10:25;15.90;;;6.62;;
73951;SDS011;62304;47.662;18.324;2023-09-19T01:13:31;18.33;;;6.55;;
73951;SDS011;62304;47.662;18.324;2023-09-19T01:16:46;11.50;;;5.63;;
73951;SDS011;62304;47.662;18.324;2023-09-19T01:29:39;14.43;;;6.32;;
73951;SDS011;62304;47.662;18.324;2023-09-19T01:32:49;10.50;;;6.33;;
73951;SDS011;62304;47.662;18.324;2023-09-19T01:35:54;16.17;;;6.10;;
73951;SDS011;62304;47.662;18.324;2023-09-19T01:39:05;13.73;;;5.87;;
73951;SDS011;62304;47.662;18.324;2023-09-19T01:42:41;12.93;;;5.18;;
73951;SDS011;62304;47.662;18.324;2023-09-19T01:46:13;14.43;;;6.10;;
73951;SDS011;62304;47.662;18.324;2023-09-19T01:49:27;11.90;;;5.27;;
73951;SDS011;62304;47.662;18.324;2023-09-19T01:52:42;11.35;;;5.37;;
73951;SDS011;62304;47.662;18.324;2023-09-19T01:55:51;11.38;;;4.60;;
73951;SDS011;62304;47.662;18.324;2023-09-19T01:58:57;13.98;;;4.95;;
73951;SDS011;62304;47.662;18.324;2023-09-19T02:02:06;13.85;;;5.15;;
73951;SDS011;62304;47.662;18.324;2023-09-19T02:05:11;10.23;;;4.13;;
73951;SDS011;62304;47.662;18.324;2023-09-19T02:08:18;9.48;;;3.80;;
73951;SDS011;62304;47.662;18.324;2023-09-19T02:11:31;9.77;;;3.65;;
73951;SDS011;62304;47.662;18.324;2023-09-19T02:14:34;8.55;;;3.47;;
73951;SDS011;62304;47.662;18.324;2023-09-19T02:17:38;7.57;;;3.10;;
73951;SDS011;62304;47.662;18.324;2023-09-19T02:20:42;9.53;;;2.80;;
73951;SDS011;62304;47.662;18.324;2023-09-19T02:23:49;6.32;;;2.62;;
73951;SDS011;62304;47.662;18.324;2023-09-19T02:26:51;5.90;;;2.20;;
73951;SDS011;62304;47.662;18.324;2023-09-19T02:29:55;6.18;;;1.95;;
73951;SDS011;62304;47.662;18.324;2023-09-19T02:32:58;6.45;;;2.00;;
73951;SDS011;62304;47.662;18.324;2023-09-19T02:36:05;6.63;;;1.80;;
73951;SDS011;62304;47.662;18.324;2023-09-19T02:39:08;7.32;;;1.67;;
73951;SDS011;62304;47.662;18.324;2023-09-19T02:42:11;6.05;;;1.60;;
73951;SDS011;62304;47.662;18.324;2023-09-19T02:45:18;4.18;;;1.90;;
73951;SDS011;62304;47.662;18.324;2023-09-19T02:48:28;6.28;;;1.50;;
73951;SDS011;62304;47.662;18.324;2023-09-19T02:51:32;4.37;;;1.43;;
73951;SDS011;62304;47.662;18.324;2023-09-19T02:54:36;5.22;;;1.42;;
73951;SDS011;62304;47.662;18.324;2023-09-19T02:57:39;4.47;;;1.33;;
73951;SDS011;62304;47.662;18.324;2023-09-19T03:00:45;3.87;;;1.12;;
73951;SDS011;62304;47.662;18.324;2023-09-19T03:03:54;4.53;;;0.98;;
73951;SDS011;62304;47.662;18.324;2023-09-19T03:06:57;5.03;;;1.03;;
73951;SDS011;62304;47.662;18.324;2023-09-19T03:10:04;4.45;;;0.90;;
73951;SDS011;62304;47.662;18.324;2023-09-19T03:13:09;3.10;;;0.93;;
73951;SDS011;62304;47.662;18.324;2023-09-19T03:16:12;4.20;;;0.88;;
73951;SDS011;62304;47.662;18.324;2023-09-19T03:19:20;3.65;;;0.70;;
73951;SDS011;62304;47.662;18.324;2023-09-19T03:22:23;4.00;;;0.90;;
73951;SDS011;62304;47.662;18.324;2023-09-19T03:25:27;4.90;;;1.10;;
73951;SDS011;62304;47.662;18.324;2023-09-19T03:28:33;5.53;;;1.10;;
73951;SDS011;62304;47.662;18.324;2023-09-19T03:31:37;5.18;;;1.10;;
73951;SDS011;62304;47.662;18.324;2023-09-19T03:34:41;3.80;;;1.17;;
73951;SDS011;62304;47.662;18.324;2023-09-19T03:37:47;3.83;;;0.90;;
73951;SDS011;62304;47.662;18.324;2023-09-19T03:40:50;4.97;;;1.00;;
73951;SDS011;62304;47.662;18.324;2023-09-19T03:43:53;3.45;;;0.90;;
73951;SDS011;62304;47.662;18.324;2023-09-19T03:46:56;3.58;;;0.90;;
73951;SDS011;62304;47.662;18.324;2023-09-19T03:49:59;2.80;;;0.70;;
73951;SDS011;62304;47.662;18.324;2023-09-19T03:53:04;2.80;;;0.93;;
73951;SDS011;62304;47.662;18.324;2023-09-19T03:56:09;3.08;;;0.62;;
73951;SDS011;62304;47.662;18.324;2023-09-19T03:59:13;2.90;;;0.77;;
73951;SDS011;62304;47.662;18.324;2023-09-19T04:02:16;4.03;;;0.80;;
73951;SDS011;62304;47.662;18.324;2023-09-19T04:05:31;3.40;;;0.80;;
73951;SDS011;62304;47.662;18.324;2023-09-19T04:08:34;2.63;;;0.70;;
73951;SDS011;62304;47.662;18.324;2023-09-19T04:11:39;3.67;;;0.82;;
73951;SDS011;62304;47.662;18.324;2023-09-19T04:14:42;3.47;;;1.12;;
73951;SDS011;62304;47.662;18.324;2023-09-19T04:17:46;2.50;;;0.70;;
73951;SDS011;62304;47.662;18.324;2023-09-19T04:20:50;4.18;;;0.70;;
73951;SDS011;62304;47.662;18.324;2023-09-19T04:23:53;3.77;;;0.73;;
73951;SDS011;62304;47.662;18.324;2023-09-19T04:26:56;2.70;;;0.70;;
73951;SDS011;62304;47.662;18.324;2023-09-19T04:30:00;3.37;;;0.90;;
73951;SDS011;62304;47.662;18.324;2023-09-19T04:33:04;4.00;;;0.80;;
73951;SDS011;62304;47.662;18.324;2023-09-19T04:36:09;4.25;;;0.70;;
73951;SDS011;62304;47.662;18.324;2023-09-19T04:39:32;3.90;;;0.60;;
73951;SDS011;62304;47.662;18.324;2023-09-19T04:42:37;3.95;;;0.80;;
73951;SDS011;62304;47.662;18.324;2023-09-19T04:45:44;5.18;;;0.95;;
73951;SDS011;62304;47.662;18.324;2023-09-19T04:48:49;4.97;;;0.60;;
73951;SDS011;62304;47.662;18.324;2023-09-19T04:51:52;3.33;;;0.80;;
73951;SDS011;62304;47.662;18.324;2023-09-19T04:54:55;3.77;;;0.67;;
73951;SDS011;62304;47.662;18.324;2023-09-19T04:57:58;4.07;;;0.90;;
73951;SDS011;62304;47.662;18.324;2023-09-19T05:01:01;4.37;;;0.85;;
73951;SDS011;62304;47.662;18.324;2023-09-19T05:04:05;4.50;;;0.90;;
73951;SDS011;62304;47.662;18.324;2023-09-19T05:07:09;4.53;;;0.88;;
73951;SDS011;62304;47.662;18.324;2023-09-19T05:10:13;4.00;;;0.60;;
73951;SDS011;62304;47.662;18.324;2023-09-19T05:13:17;2.62;;;0.62;;
73951;SDS011;62304;47.662;18.324;2023-09-19T05:16:19;4.12;;;0.85;;
73951;SDS011;62304;47.662;18.324;2023-09-19T05:19:23;3.97;;;0.80;;
73951;SDS011;62304;47.662;18.324;2023-09-19T05:22:29;2.87;;;0.90;;
73951;SDS011;62304;47.662;18.324;2023-09-19T05:25:32;5.13;;;0.87;;
73951;SDS011;62304;47.662;18.324;2023-09-19T05:28:39;4.65;;;0.77;;
73951;SDS011;62304;47.662;18.324;2023-09-19T05:31:42;4.72;;;1.00;;
73951;SDS011;62304;47.662;18.324;2023-09-19T05:34:46;5.05;;;0.98;;
73951;SDS011;62304;47.662;18.324;2023-09-19T05:37:55;4.15;;;0.98;;
73951;SDS011;62304;47.662;18.324;2023-09-19T05:41:00;3.53;;;0.93;;
73951;SDS011;62304;47.662;18.324;2023-09-19T05:44:04;4.18;;;1.10;;
73951;SDS011;62304;47.662;18.324;2023-09-19T05:47:09;4.35;;;1.05;;
73951;SDS011;62304;47.662;18.324;2023-09-19T05:50:12;3.20;;;0.85;;
73951;SDS011;62304;47.662;18.324;2023-09-19T05:53:17;4.68;;;1.10;;
73951;SDS011;62304;47.662;18.324;2023-09-19T05:56:21;4.13;;;0.87;;
73951;SDS011;62304;47.662;18.324;2023-09-19T05:59:25;4.60;;;0.90;;
73951;SDS011;62304;47.662;18.324;2023-09-19T06:02:31;4.53;;;1.00;;
73951;SDS011;62304;47.662;18.324;2023-09-19T06:05:35;4.90;;;1.10;;
73951;SDS011;62304;47.662;18.324;2023-09-19T06:08:38;6.22;;;1.20;;
73951;SDS011;62304;47.662;18.324;2023-09-19T06:11:42;3.80;;;1.00;;
73951;SDS011;62304;47.662;18.324;2023-09-19T06:14:45;3.15;;;0.75;;
73951;SDS011;62304;47.662;18.324;2023-09-19T06:17:49;4.18;;;1.10;;
73951;SDS011;62304;47.662;18.324;2023-09-19T06:21:01;4.65;;;1.10;;
73951;SDS011;62304;47.662;18.324;2023-09-19T06:24:09;3.95;;;1.23;;
73951;SDS011;62304;47.662;18.324;2023-09-19T06:27:14;3.83;;;1.20;;
73951;SDS011;62304;47.662;18.324;2023-09-19T06:30:17;3.85;;;1.30;;
73951;SDS011;62304;47.662;18.324;2023-09-19T06:33:21;4.90;;;1.20;;
73951;SDS011;62304;47.662;18.324;2023-09-19T06:36:24;5.47;;;1.25;;
73951;SDS011;62304;47.662;18.324;2023-09-19T06:39:27;4.95;;;1.12;;
73951;SDS011;62304;47.662;18.324;2023-09-19T06:42:31;4.13;;;1.00;;
73951;SDS011;62304;47.662;18.324;2023-09-19T06:45:34;5.60;;;1.40;;
73951;SDS011;62304;47.662;18.324;2023-09-19T06:48:38;3.70;;;1.27;;
73951;SDS011;62304;47.662;18.324;2023-09-19T06:51:41;4.75;;;1.15;;
73951;SDS011;62304;47.662;18.324;2023-09-19T06:54:45;4.55;;;1.25;;
73951;SDS011;62304;47.662;18.324;2023-09-19T06:57:50;3.87;;;1.10;;
73951;SDS011;62304;47.662;18.324;2023-09-19T07:00:53;3.85;;;1.48;;
73951;SDS011;62304;47.662;18.324;2023-09-19T07:03:56;6.12;;;1.60;;
73951;SDS011;62304;47.662;18.324;2023-09-19T07:07:00;4.62;;;1.20;;
73951;SDS011;62304;47.662;18.324;2023-09-19T07:10:04;5.00;;;1.40;;
73951;SDS011;62304;47.662;18.324;2023-09-19T07:13:08;4.67;;;1.50;;
73951;SDS011;62304;47.662;18.324;2023-09-19T07:16:14;4.12;;;1.30;;
73951;SDS011;62304;47.662;18.324;2023-09-19T07:19:30;5.05;;;1.70;;
73951;SDS011;62304;47.662;18.324;2023-09-19T07:22:37;3.42;;;1.40;;
73951;SDS011;62304;47.662;18.324;2023-09-19T07:25:42;4.65;;;1.40;;
73951;SDS011;62304;47.662;18.324;2023-09-19T07:28:46;4.60;;;1.40;;
73951;SDS011;62304;47.662;18.324;2023-09-19T07:31:50;3.78;;;1.50;;
73951;SDS011;62304;47.662;18.324;2023-09-19T07:34:54;5.03;;;1.67;;
73951;SDS011;62304;47.662;18.324;2023-09-19T07:37:58;4.70;;;1.60;;
73951;SDS011;62304;47.662;18.324;2023-09-19T07:41:03;6.25;;;1.50;;
73951;SDS011;62304;47.662;18.324;2023-09-19T07:44:08;4.73;;;1.60;;
73951;SDS011;62304;47.662;18.324;2023-09-19T07:47:13;4.78;;;1.80;;
73951;SDS011;62304;47.662;18.324;2023-09-19T07:50:17;5.07;;;1.73;;
73951;SDS011;62304;47.662;18.324;2023-09-19T07:53:21;6.32;;;2.12;;
73951;SDS011;62304;47.662;18.324;2023-09-19T07:56:25;5.30;;;1.87;;
73951;SDS011;62304;47.662;18.324;2023-09-19T07:59:31;4.67;;;1.73;;
73951;SDS011;62304;47.662;18.324;2023-09-19T08:02:35;4.32;;;2.00;;
73951;SDS011;62304;47.662;18.324;2023-09-19T08:05:41;5.05;;;2.08;;
73951;SDS011;62304;47.662;18.324;2023-09-19T08:08:46;7.57;;;2.30;;
73951;SDS011;62304;47.662;18.324;2023-09-19T08:11:49;7.55;;;2.53;;
73951;SDS011;62304;47.662;18.324;2023-09-19T08:14:53;5.03;;;2.37;;
73951;SDS011;62304;47.662;18.324;2023-09-19T08:17:57;4.57;;;2.15;;
73951;SDS011;62304;47.662;18.324;2023-09-19T08:21:00;4.95;;;2.10;;
73951;SDS011;62304;47.662;18.324;2023-09-19T08:24:07;4.68;;;1.90;;
73951;SDS011;62304;47.662;18.324;2023-09-19T08:27:11;7.62;;;2.70;;
73951;SDS011;62304;47.662;18.324;2023-09-19T08:30:15;4.50;;;2.10;;
73951;SDS011;62304;47.662;18.324;2023-09-19T08:33:20;5.28;;;2.10;;
73951;SDS011;62304;47.662;18.324;2023-09-19T08:36:24;4.50;;;2.17;;
73951;SDS011;62304;47.662;18.324;2023-09-19T08:39:27;5.18;;;1.98;;
73951;SDS011;62304;47.662;18.324;2023-09-19T08:42:31;7.45;;;2.33;;
73951;SDS011;62304;47.662;18.324;2023-09-19T08:46:06;5.43;;;2.03;;
73951;SDS011;62304;47.662;18.324;2023-09-19T08:50:04;4.22;;;1.77;;
73951;SDS011;62304;47.662;18.324;2023-09-19T08:52:49;4.50;;;1.77;;
73951;SDS011;62304;47.662;18.324;2023-09-19T08:55:57;10.18;;;2.10;;
73951;SDS011;62304;47.662;18.324;2023-09-19T08:59:04;7.28;;;1.92;;
73951;SDS011;62304;47.662;18.324;2023-09-19T09:02:12;5.30;;;1.87;;
73951;SDS011;62304;47.662;18.324;2023-09-19T09:05:20;4.78;;;2.05;;
73951;SDS011;62304;47.662;18.324;2023-09-19T09:08:26;4.90;;;1.80;;
73951;SDS011;62304;47.662;18.324;2023-09-19T09:11:32;5.03;;;2.10;;
73951;SDS011;62304;47.662;18.324;2023-09-19T09:14:36;4.25;;;1.58;;
73951;SDS011;62304;47.662;18.324;2023-09-19T09:17:39;8.37;;;1.83;;
73951;SDS011;62304;47.662;18.324;2023-09-19T09:20:44;4.28;;;1.60;;
73951;SDS011;62304;47.662;18.324;2023-09-19T09:23:49;4.87;;;1.62;;
73951;SDS011;62304;47.662;18.324;2023-09-19T09:26:54;4.53;;;1.58;;
73951;SDS011;62304;47.662;18.324;2023-09-19T09:29:57;4.53;;;1.85;;
73951;SDS011;62304;47.662;18.324;2023-09-19T09:33:11;4.63;;;1.80;;
73951;SDS011;62304;47.662;18.324;2023-09-19T09:36:16;4.62;;;1.40;;
73951;SDS011;62304;47.662;18.324;2023-09-19T09:39:36;3.80;;;1.50;;
73951;SDS011;62304;47.662;18.324;2023-09-19T09:42:39;3.80;;;1.50;;
73951;SDS011;62304;47.662;18.324;2023-09-19T09:45:43;4.50;;;1.48;;
73951;SDS011;62304;47.662;18.324;2023-09-19T09:48:58;3.57;;;1.10;;
73951;SDS011;62304;47.662;18.324;2023-09-19T09:52:22;3.10;;;1.10;;
73951;SDS011;62304;47.662;18.324;2023-09-19T09:55:27;4.40;;;1.12;;
73951;SDS011;62304;47.662;18.324;2023-09-19T09:58:33;3.65;;;1.05;;
73951;SDS011;62304;47.662;18.324;2023-09-19T10:01:47;3.83;;;0.93;;
73951;SDS011;62304;47.662;18.324;2023-09-19T10:04:55;4.23;;;1.20;;
73951;SDS011;62304;47.662;18.324;2023-09-19T10:08:13;3.97;;;1.20;;
73951;SDS011;62304;47.662;18.324;2023-09-19T10:11:21;4.68;;;1.20;;
73951;SDS011;62304;47.662;18.324;2023-09-19T10:14:33;4.35;;;1.10;;
73951;SDS011;62304;47.662;18.324;2023-09-19T10:17:42;3.62;;;0.98;;
73951;SDS011;62304;47.662;18.324;2023-09-19T10:20:46;4.43;;;1.27;;
73951;SDS011;62304;47.662;18.324;2023-09-19T10:23:52;5.28;;;1.20;;
73951;SDS011;62304;47.662;18.324;2023-09-19T10:26:59;4.53;;;1.30;;
73951;SDS011;62304;47.662;18.324;2023-09-19T10:30:07;5.15;;;1.60;;
73951;SDS011;62304;47.662;18.324;2023-09-19T10:33:13;5.05;;;1.70;;
73951;SDS011;62304;47.662;18.324;2023-09-19T10:36:23;6.10;;;1.70;;
73951;SDS011;62304;47.662;18.324;2023-09-19T10:39:30;4.50;;;1.40;;
73951;SDS011;62304;47.662;18.324;2023-09-19T10:42:38;4.22;;;1.60;;
73951;SDS011;62304;47.662;18.324;2023-09-19T10:45:45;6.12;;;1.45;;
73951;SDS011;62304;47.662;18.324;2023-09-19T10:48:52;5.55;;;1.60;;
73951;SDS011;62304;47.662;18.324;2023-09-19T10:51:57;3.60;;;1.27;;
73951;SDS011;62304;47.662;18.324;2023-09-19T10:55:04;4.30;;;1.70;;
73951;SDS011;62304;47.662;18.324;2023-09-19T10:58:09;4.47;;;1.60;;
73951;SDS011;62304;47.662;18.324;2023-09-19T11:01:18;4.93;;;1.50;;
73951;SDS011;62304;47.662;18.324;2023-09-19T11:04:27;4.65;;;1.60;;
73951;SDS011;62304;47.662;18.324;2023-09-19T11:07:33;4.30;;;1.90;;
73951;SDS011;62304;47.662;18.324;2023-09-19T11:11:06;4.32;;;1.55;;
73951;SDS011;62304;47.662;18.324;2023-09-19T11:14:44;3.87;;;2.12;;
73951;SDS011;62304;47.662;18.324;2023-09-19T11:17:47;5.50;;;1.80;;
73951;SDS011;62304;47.662;18.324;2023-09-19T11:21:10;5.68;;;1.77;;
73951;SDS011;62304;47.662;18.324;2023-09-19T11:24:38;4.87;;;1.80;;
73951;SDS011;62304;47.662;18.324;2023-09-19T11:28:10;5.45;;;2.35;;
73951;SDS011;62304;47.662;18.324;2023-09-19T11:34:47;4.25;;;1.50;;
73951;SDS011;62304;47.662;18.324;2023-09-19T11:44:32;6.50;;;2.20;;
73951;SDS011;62304;47.662;18.324;2023-09-19T11:47:38;4.45;;;1.90;;
73951;SDS011;62304;47.662;18.324;2023-09-19T11:50:42;4.53;;;1.90;;
73951;SDS011;62304;47.662;18.324;2023-09-19T11:53:47;4.87;;;1.70;;
73951;SDS011;62304;47.662;18.324;2023-09-19T11:56:54;6.63;;;2.13;;
73951;SDS011;62304;47.662;18.324;2023-09-19T11:59:58;4.95;;;1.92;;
73951;SDS011;62304;47.662;18.324;2023-09-19T12:03:03;4.55;;;1.80;;
73951;SDS011;62304;47.662;18.324;2023-09-19T12:06:14;4.60;;;1.70;;
73951;SDS011;62304;47.662;18.324;2023-09-19T12:09:19;3.47;;;1.70;;
73951;SDS011;62304;47.662;18.324;2023-09-19T12:12:23;5.50;;;1.73;;
73951;SDS011;62304;47.662;18.324;2023-09-19T12:15:32;7.55;;;2.00;;
73951;SDS011;62304;47.662;18.324;2023-09-19T12:18:41;4.80;;;1.85;;
73951;SDS011;62304;47.662;18.324;2023-09-19T12:22:08;3.40;;;1.70;;
73951;SDS011;62304;47.662;18.324;2023-09-19T12:25:12;5.28;;;1.70;;
73951;SDS011;62304;47.662;18.324;2023-09-19T12:28:15;4.17;;;1.77;;
73951;SDS011;62304;47.662;18.324;2023-09-19T12:31:27;3.70;;;1.60;;
73951;SDS011;62304;47.662;18.324;2023-09-19T12:34:39;4.32;;;1.83;;
73951;SDS011;62304;47.662;18.324;2023-09-19T12:37:51;3.75;;;1.83;;
73951;SDS011;62304;47.662;18.324;2023-09-19T12:40:57;3.45;;;1.62;;
73951;SDS011;62304;47.662;18.324;2023-09-19T12:44:03;4.23;;;1.70;;
73951;SDS011;62304;47.662;18.324;2023-09-19T12:47:15;3.90;;;1.77;;
73951;SDS011;62304;47.662;18.324;2023-09-19T12:50:22;4.35;;;2.08;;
73951;SDS011;62304;47.662;18.324;2023-09-19T12:53:32;3.85;;;1.60;;
73951;SDS011;62304;47.662;18.324;2023-09-19T12:56:42;4.30;;;1.70;;
73951;SDS011;62304;47.662;18.324;2023-09-19T12:59:52;3.27;;;1.70;;
73951;SDS011;62304;47.662;18.324;2023-09-19T13:06:59;3.42;;;1.80;;
73951;SDS011;62304;47.662;18.324;2023-09-19T13:10:02;3.80;;;1.85;;
73951;SDS011;62304;47.662;18.324;2023-09-19T13:13:23;4.20;;;1.87;;
73951;SDS011;62304;47.662;18.324;2023-09-19T13:16:30;5.10;;;1.70;;
73951;SDS011;62304;47.662;18.324;2023-09-19T13:22:42;3.85;;;1.60;;
73951;SDS011;62304;47.662;18.324;2023-09-19T13:25:56;4.25;;;1.60;;
73951;SDS011;62304;47.662;18.324;2023-09-19T13:29:02;4.37;;;1.62;;
73951;SDS011;62304;47.662;18.324;2023-09-19T13:32:05;3.57;;;1.53;;
73951;SDS011;62304;47.662;18.324;2023-09-19T13:35:08;4.20;;;1.85;;
73951;SDS011;62304;47.662;18.324;2023-09-19T13:38:15;3.40;;;1.60;;
73951;SDS011;62304;47.662;18.324;2023-09-19T13:41:18;5.07;;;1.62;;
73951;SDS011;62304;47.662;18.324;2023-09-19T13:44:21;3.65;;;1.73;;
73951;SDS011;62304;47.662;18.324;2023-09-19T13:47:24;4.23;;;1.70;;
73951;SDS011;62304;47.662;18.324;2023-09-19T13:50:29;4.20;;;1.77;;
73951;SDS011;62304;47.662;18.324;2023-09-19T13:53:34;5.05;;;1.70;;
73951;SDS011;62304;47.662;18.324;2023-09-19T13:56:36;3.95;;;2.10;;
73951;SDS011;62304;47.662;18.324;2023-09-19T13:59:40;4.50;;;2.03;;
73951;SDS011;62304;47.662;18.324;2023-09-19T14:02:43;4.03;;;1.90;;
73951;SDS011;62304;47.662;18.324;2023-09-19T14:05:51;3.95;;;2.10;;
73951;SDS011;62304;47.662;18.324;2023-09-19T14:08:54;3.60;;;1.70;;
73951;SDS011;62304;47.662;18.324;2023-09-19T14:11:58;4.35;;;1.90;;
73951;SDS011;62304;47.662;18.324;2023-09-19T14:15:00;3.37;;;1.70;;
73951;SDS011;62304;47.662;18.324;2023-09-19T14:18:04;4.63;;;1.90;;
73951;SDS011;62304;47.662;18.324;2023-09-19T14:21:07;5.70;;;2.22;;
73951;SDS011;62304;47.662;18.324;2023-09-19T14:24:17;5.20;;;1.70;;
73951;SDS011;62304;47.662;18.324;2023-09-19T14:27:20;5.93;;;2.00;;
73951;SDS011;62304;47.662;18.324;2023-09-19T14:30:23;5.65;;;1.92;;
73951;SDS011;62304;47.662;18.324;2023-09-19T14:33:26;4.80;;;1.60;;
73951;SDS011;62304;47.662;18.324;2023-09-19T14:36:30;4.90;;;1.83;;
73951;SDS011;62304;47.662;18.324;2023-09-19T14:39:33;3.65;;;2.17;;
73951;SDS011;62304;47.662;18.324;2023-09-19T14:42:38;4.30;;;2.15;;
73951;SDS011;62304;47.662;18.324;2023-09-19T14:45:42;4.45;;;1.83;;
73951;SDS011;62304;47.662;18.324;2023-09-19T14:48:45;4.13;;;1.80;;
73951;SDS011;62304;47.662;18.324;2023-09-19T14:51:55;4.25;;;1.95;;
73951;SDS011;62304;47.662;18.324;2023-09-19T14:55:10;4.60;;;1.85;;
73951;SDS011;62304;47.662;18.324;2023-09-19T14:58:18;4.10;;;1.60;;
73951;SDS011;62304;47.662;18.324;2023-09-19T15:01:25;3.85;;;2.00;;
73951;SDS011;62304;47.662;18.324;2023-09-19T15:04:31;5.83;;;1.70;;
73951;SDS011;62304;47.662;18.324;2023-09-19T15:07:36;4.55;;;1.90;;
73951;SDS011;62304;47.662;18.324;2023-09-19T15:10:40;4.45;;;1.90;;
73951;SDS011;62304;47.662;18.324;2023-09-19T15:13:47;3.60;;;1.40;;
73951;SDS011;62304;47.662;18.324;2023-09-19T15:16:56;5.13;;;1.67;;
73951;SDS011;62304;47.662;18.324;2023-09-19T15:20:03;3.75;;;1.45;;
73951;SDS011;62304;47.662;18.324;2023-09-19T15:23:09;3.80;;;1.62;;
73951;SDS011;62304;47.662;18.324;2023-09-19T15:26:15;3.92;;;1.87;;
73951;SDS011;62304;47.662;18.324;2023-09-19T15:29:24;4.07;;;1.52;;
73951;SDS011;62304;47.662;18.324;2023-09-19T15:32:27;3.73;;;1.40;;
73951;SDS011;62304;47.662;18.324;2023-09-19T15:35:31;4.43;;;1.52;;
73951;SDS011;62304;47.662;18.324;2023-09-19T15:38:55;3.80;;;1.50;;
73951;SDS011;62304;47.662;18.324;2023-09-19T15:42:05;3.87;;;1.50;;
73951;SDS011;62304;47.662;18.324;2023-09-19T15:45:10;3.95;;;1.73;;
73951;SDS011;62304;47.662;18.324;2023-09-19T15:48:14;3.33;;;1.40;;
73951;SDS011;62304;47.662;18.324;2023-09-19T15:51:25;8.45;;;1.73;;
73951;SDS011;62304;47.662;18.324;2023-09-19T15:54:29;3.65;;;1.65;;
73951;SDS011;62304;47.662;18.324;2023-09-19T15:57:33;4.70;;;1.83;;
73951;SDS011;62304;47.662;18.324;2023-09-19T16:00:39;4.12;;;1.50;;
73951;SDS011;62304;47.662;18.324;2023-09-19T16:03:50;3.90;;;1.50;;
73951;SDS011;62304;47.662;18.324;2023-09-19T16:06:55;5.43;;;1.50;;
73951;SDS011;62304;47.662;18.324;2023-09-19T16:09:59;3.70;;;1.45;;
73951;SDS011;62304;47.662;18.324;2023-09-19T16:13:05;3.75;;;1.60;;
73951;SDS011;62304;47.662;18.324;2023-09-19T16:16:14;3.92;;;1.73;;
73951;SDS011;62304;47.662;18.324;2023-09-19T16:19:19;5.20;;;1.70;;
73951;SDS011;62304;47.662;18.324;2023-09-19T16:22:23;3.28;;;1.58;;
73951;SDS011;62304;47.662;18.324;2023-09-19T16:25:26;5.82;;;1.90;;
73951;SDS011;62304;47.662;18.324;2023-09-19T16:28:32;4.40;;;1.90;;
73951;SDS011;62304;47.662;18.324;2023-09-19T16:31:42;4.80;;;1.85;;
73951;SDS011;62304;47.662;18.324;2023-09-19T16:34:49;3.93;;;2.00;;
73951;SDS011;62304;47.662;18.324;2023-09-19T16:37:52;4.30;;;1.62;;
73951;SDS011;62304;47.662;18.324;2023-09-19T16:40:57;4.60;;;1.90;;
73951;SDS011;62304;47.662;18.324;2023-09-19T16:44:01;4.80;;;1.92;;
73951;SDS011;62304;47.662;18.324;2023-09-19T16:47:08;3.42;;;1.62;;
73951;SDS011;62304;47.662;18.324;2023-09-19T16:50:12;4.43;;;1.87;;
73951;SDS011;62304;47.662;18.324;2023-09-19T16:53:18;3.80;;;1.67;;
73951;SDS011;62304;47.662;18.324;2023-09-19T16:56:22;4.95;;;1.85;;
73951;SDS011;62304;47.662;18.324;2023-09-19T16:59:27;6.75;;;2.42;;
73951;SDS011;62304;47.662;18.324;2023-09-19T17:02:31;4.87;;;2.40;;
73951;SDS011;62304;47.662;18.324;2023-09-19T17:05:35;4.13;;;1.87;;
73951;SDS011;62304;47.662;18.324;2023-09-19T17:08:41;6.12;;;2.00;;
73951;SDS011;62304;47.662;18.324;2023-09-19T17:11:50;4.60;;;1.87;;
73951;SDS011;62304;47.662;18.324;2023-09-19T17:14:54;4.22;;;1.73;;
73951;SDS011;62304;47.662;18.324;2023-09-19T17:17:59;4.25;;;2.00;;
73951;SDS011;62304;47.662;18.324;2023-09-19T17:21:04;4.57;;;2.07;;
73951;SDS011;62304;47.662;18.324;2023-09-19T17:24:13;5.97;;;2.17;;
73951;SDS011;62304;47.662;18.324;2023-09-19T17:27:17;5.95;;;2.50;;
73951;SDS011;62304;47.662;18.324;2023-09-19T17:30:21;7.50;;;2.55;;
73951;SDS011;62304;47.662;18.324;2023-09-19T17:33:26;7.22;;;2.53;;
73951;SDS011;62304;47.662;18.324;2023-09-19T17:36:35;7.43;;;2.83;;
73951;SDS011;62304;47.662;18.324;2023-09-19T17:39:42;6.75;;;2.65;;
73951;SDS011;62304;47.662;18.324;2023-09-19T17:42:52;7.35;;;2.42;;
73951;SDS011;62304;47.662;18.324;2023-09-19T17:45:56;9.02;;;2.72;;
73951;SDS011;62304;47.662;18.324;2023-09-19T17:49:03;6.47;;;2.03;;
73951;SDS011;62304;47.662;18.324;2023-09-19T17:52:10;6.17;;;2.60;;
73951;SDS011;62304;47.662;18.324;2023-09-19T17:55:15;5.62;;;2.75;;
73951;SDS011;62304;47.662;18.324;2023-09-19T17:58:24;10.68;;;3.25;;
73951;SDS011;62304;47.662;18.324;2023-09-19T18:01:30;7.25;;;2.70;;
73951;SDS011;62304;47.662;18.324;2023-09-19T18:04:36;8.15;;;2.60;;
73951;SDS011;62304;47.662;18.324;2023-09-19T18:07:44;6.60;;;2.90;;
73951;SDS011;62304;47.662;18.324;2023-09-19T18:10:52;7.05;;;2.50;;
73951;SDS011;62304;47.662;18.324;2023-09-19T18:14:01;7.12;;;2.60;;
73951;SDS011;62304;47.662;18.324;2023-09-19T18:17:11;5.78;;;2.50;;
73951;SDS011;62304;47.662;18.324;2023-09-19T18:20:20;7.18;;;3.12;;
73951;SDS011;62304;47.662;18.324;2023-09-19T18:23:29;7.23;;;2.70;;
73951;SDS011;62304;47.662;18.324;2023-09-19T18:26:34;6.12;;;2.40;;
73951;SDS011;62304;47.662;18.324;2023-09-19T18:29:42;7.30;;;2.58;;
73951;SDS011;62304;47.662;18.324;2023-09-19T18:32:49;5.55;;;2.50;;
73951;SDS011;62304;47.662;18.324;2023-09-19T18:36:00;5.82;;;2.70;;
73951;SDS011;62304;47.662;18.324;2023-09-19T18:39:10;6.50;;;2.93;;
73951;SDS011;62304;47.662;18.324;2023-09-19T18:42:14;7.85;;;3.15;;
73951;SDS011;62304;47.662;18.324;2023-09-19T18:45:18;9.52;;;3.20;;
73951;SDS011;62304;47.662;18.324;2023-09-19T18:48:43;9.15;;;2.83;;
73951;SDS011;62304;47.662;18.324;2023-09-19T18:51:48;7.12;;;2.60;;
73951;SDS011;62304;47.662;18.324;2023-09-19T18:54:58;7.83;;;2.97;;
73951;SDS011;62304;47.662;18.324;2023-09-19T18:58:02;8.30;;;3.08;;